Time;durP1;ratioP1;P1;durP2;ratioP2;P2;SDS_P1;SDS_P2;PMS_P1;PMS_P2;Temp;Humidity;BMP_temperature;BMP_pressure;BME280_temperature;BME280_humidity;BME280_pressure;Samples;Min_cycle;Max_cycle;Signal;HPM_P1;HPM_P2
2022/07/21 00:00:23;;;;;;;3.83;3.30;;;;;;;24.38;57.34;98392.50;5023984;28;20045;-84
2022/07/21 00:02:51;;;;;;;3.40;2.95;;;;;;;24.43;57.08;98394.34;5026682;28;20037;-86
2022/07/21 00:05:18;;;;;;;4.40;4.00;;;;;;;24.28;57.62;98409.41;5028348;28;20080;-85
2022/07/21 00:07:46;;;;;;;3.38;3.15;;;;;;;24.32;57.41;98408.88;5025277;28;20540;-83
2022/07/21 00:10:14;;;;;;;3.75;3.40;;;;;;;24.20;58.03;98407.34;5025958;28;20418;-83
2022/07/21 00:12:42;;;;;;;3.55;3.25;;;;;;;24.20;58.30;98412.72;5028390;28;20049;-82
2022/07/21 00:15:11;;;;;;;4.30;3.88;;;;;;;24.16;58.46;98410.88;5023703;28;20033;-81
2022/07/21 00:17:38;;;;;;;3.38;2.65;;;;;;;24.22;59.13;98418.59;5025268;28;20444;-84
2022/07/21 00:20:08;;;;;;;3.40;3.10;;;;;;;24.17;59.21;98404.44;5030830;28;20045;-82
2022/07/21 00:22:35;;;;;;;3.35;2.50;;;;;;;24.24;59.34;98408.41;5025723;28;20037;-82
2022/07/21 00:25:05;;;;;;;4.15;3.75;;;;;;;24.26;58.52;98419.63;5029112;28;20045;-83
2022/07/21 00:27:32;;;;;;;3.07;2.83;;;;;;;24.33;59.37;98423.88;5024870;28;20490;-82
2022/07/21 00:29:59;;;;;;;3.50;3.20;;;;;;;24.37;58.63;98427.63;5024934;28;20570;-82
2022/07/21 00:32:26;;;;;;;3.28;2.90;;;;;;;24.43;59.10;98424.63;5025176;28;20077;-84
2022/07/21 00:35:01;;;;;;;3.88;3.47;;;;;;;24.23;59.55;98416.69;5027901;28;20042;-81
2022/07/21 00:37:28;;;;;;;4.15;3.60;;;;;;;24.30;59.29;98425.25;5021515;28;20430;-84
2022/07/21 00:39:55;;;;;;;5.07;4.57;;;;;;;24.03;59.28;98423.03;5026975;28;20045;-81
2022/07/21 00:42:25;;;;;;;3.40;3.10;;;;;;;24.12;59.96;98416.00;5023322;28;20057;-82
2022/07/21 00:44:51;;;;;;;3.23;3.00;;;;;;;24.23;59.08;98412.16;5026633;28;20155;-81
2022/07/21 00:47:28;;;;;;;3.60;3.30;;;;;;;24.15;58.69;98409.28;5024392;28;20042;-82
2022/07/21 00:49:57;;;;;;;3.53;3.08;;;;;;;23.96;59.48;98401.13;5011985;28;20034;-82
2022/07/21 00:52:25;;;;;;;4.13;2.55;;;;;;;24.06;59.57;98390.34;5021459;28;20544;-82
2022/07/21 00:54:53;;;;;;;2.80;2.60;;;;;;;24.22;59.24;98365.00;5041109;28;20414;-83
2022/07/21 00:57:19;;;;;;;2.65;2.45;;;;;;;24.26;58.30;98347.28;5038617;28;20050;-83
2022/07/21 00:59:46;;;;;;;2.30;2.10;;;;;;;24.38;59.03;98370.25;5025402;28;20044;-82
2022/07/21 01:02:13;;;;;;;3.33;3.03;;;;;;;24.15;58.63;98364.53;5024681;28;20045;-82
2022/07/21 01:04:41;;;;;;;4.43;4.03;;;;;;;23.96;59.11;98342.19;5025368;28;20115;-84
2022/07/21 01:07:08;;;;;;;4.75;3.70;;;;;;;23.55;60.95;98294.25;5022309;28;20501;-83
2022/07/21 01:09:36;;;;;;;2.97;2.67;;;;;;;23.76;61.25;98285.03;5023052;28;20044;-83
2022/07/21 01:12:04;;;;;;;2.50;2.30;;;;;;;23.80;62.88;98268.38;5011545;28;20050;-82
2022/07/21 01:14:32;;;;;;;2.55;2.35;;;;;;;23.77;65.03;98259.06;5026684;28;20452;-80
2022/07/21 01:17:01;;;;;;;2.63;2.42;;;;;;;23.87;67.45;98258.16;5020706;28;20042;-81
2022/07/21 01:19:29;;;;;;;3.05;2.50;;;;;;;23.89;67.88;98264.03;5018186;28;20531;-81
2022/07/21 01:21:55;;;;;;;2.30;2.10;;;;;;;23.88;68.72;98265.91;5006807;28;20096;-81
2022/07/21 01:24:22;;;;;;;3.50;2.40;;;;;;;23.83;67.38;98267.84;5022656;28;20045;-80
2022/07/21 01:26:52;;;;;;;3.25;2.40;;;;;;;23.75;68.78;98280.75;5022832;28;20042;-81
2022/07/21 01:29:20;;;;;;;3.45;3.10;;;;;;;23.39;68.91;98290.91;5023504;28;20485;-82
2022/07/21 01:31:48;;;;;;;3.30;3.00;;;;;;;22.98;71.41;98285.00;5024182;28;20335;-81
2022/07/21 01:34:17;;;;;;;3.78;3.30;;;;;;;22.63;73.58;98296.59;5022867;28;20509;-82
2022/07/21 01:36:45;;;;;;;4.43;4.00;;;;;;;22.51;72.36;98291.56;5024752;28;20042;-82
2022/07/21 01:41:58;;;;;;;2.60;2.40;;;;;;;22.81;72.58;98301.34;5023007;28;20116;-79
2022/07/21 01:44:24;;;;;;;2.63;2.42;;;;;;;22.88;72.87;98306.44;5022441;28;20053;-80
2022/07/21 01:46:52;;;;;;;2.50;2.30;;;;;;;23.01;72.64;98308.50;5024848;28;20076;-80
2022/07/21 01:49:20;;;;;;;2.90;2.60;;;;;;;23.05;71.87;98312.22;5018817;28;20092;-79
2022/07/21 01:51:48;;;;;;;4.13;3.03;;;;;;;22.93;71.18;98299.19;5020930;28;20579;-81
2022/07/21 01:54:16;;;;;;;3.63;3.28;;;;;;;22.69;71.28;98301.66;5023993;28;20448;-81
2022/07/21 01:56:49;;;;;;;2.80;2.60;;;;;;;22.65;72.71;98289.91;5024373;28;20083;-80
2022/07/21 01:59:16;;;;;;;3.38;2.72;;;;;;;22.76;72.11;98297.88;5023262;28;20486;-80
2022/07/21 02:01:43;;;;;;;3.63;2.85;;;;;;;22.70;72.53;98289.88;5023640;28;20464;-81
2022/07/21 02:04:09;;;;;;;4.28;3.20;;;;;;;22.69;72.77;98290.16;5023049;28;20045;-81
2022/07/21 02:06:36;;;;;;;2.80;2.60;;;;;;;22.68;73.03;98292.03;5024072;28;20104;-80
2022/07/21 02:09:03;;;;;;;3.03;2.70;;;;;;;22.67;72.08;98301.13;5024114;28;20587;-81
2022/07/21 02:11:30;;;;;;;2.80;2.60;;;;;;;22.69;72.68;98308.88;5021916;28;20077;-81
2022/07/21 02:13:56;;;;;;;3.80;3.50;;;;;;;22.45;72.16;98303.34;5023704;28;20073;-81
2022/07/21 02:16:24;;;;;;;4.80;3.50;;;;;;;22.08;74.26;98299.13;5024361;28;20046;-81
2022/07/21 02:18:50;;;;;;;3.65;3.28;;;;;;;22.08;74.45;98295.63;5022102;28;20473;-81
2022/07/21 02:21:18;;;;;;;3.15;2.90;;;;;;;22.08;74.76;98292.97;5022123;28;20273;-81
2022/07/21 02:23:45;;;;;;;2.80;2.60;;;;;;;22.21;75.28;98305.78;5021961;28;20068;-81
2022/07/21 02:26:12;;;;;;;3.10;2.80;;;;;;;22.34;74.87;98307.09;5021707;28;20084;-81
2022/07/21 02:28:39;;;;;;;2.95;2.70;;;;;;;22.30;74.52;98300.69;5027497;28;20092;-81
2022/07/21 02:31:07;;;;;;;5.20;3.90;;;;;;;21.88;76.19;98304.44;5024153;28;20084;-81
2022/07/21 02:33:34;;;;;;;3.45;2.80;;;;;;;21.80;75.72;98297.78;5019897;28;20049;-82
2022/07/21 02:36:01;;;;;;;3.72;3.15;;;;;;;21.83;75.70;98307.94;5020504;28;20042;-81
2022/07/21 02:38:28;;;;;;;3.55;3.25;;;;;;;21.88;75.16;98315.13;5020511;28;20116;-81
2022/07/21 02:40:54;;;;;;;2.95;2.75;;;;;;;21.88;75.69;98309.78;5023682;28;20096;-81
2022/07/21 02:43:23;;;;;;;2.50;2.30;;;;;;;22.02;75.44;98305.53;5022530;28;20128;-81
2022/07/21 02:45:50;;;;;;;2.72;2.50;;;;;;;22.15;75.13;98315.69;5034951;28;20046;-81
2022/07/21 02:48:19;;;;;;;3.30;3.00;;;;;;;22.14;75.18;98323.97;5022149;28;20061;-81
2022/07/21 02:50:45;;;;;;;2.97;2.70;;;;;;;22.21;74.72;98335.19;5024579;28;20094;-82
2022/07/21 02:53:19;;;;;;;2.90;2.60;;;;;;;22.18;75.19;98331.16;5023032;28;20072;-82
2022/07/21 02:55:48;;;;;;;4.43;3.67;;;;;;;22.05;75.70;98337.03;5022282;28;20041;-81
2022/07/21 02:58:27;;;;;;;6.53;4.50;;;;;;;21.84;75.62;98343.44;5025948;28;20037;-81
2022/07/21 03:01:05;;;;;;;4.82;4.32;;;;;;;21.72;75.39;98330.34;5018834;28;20070;-81
2022/07/21 03:03:35;;;;;;;3.58;3.25;;;;;;;21.67;76.60;98341.03;5025121;28;20050;-83
2022/07/21 03:06:04;;;;;;;3.30;2.90;;;;;;;21.80;76.90;98351.19;5025843;28;20045;-82
2022/07/21 03:08:32;;;;;;;3.45;3.15;;;;;;;21.89;77.14;98360.28;5025677;28;20045;-82
2022/07/21 03:10:59;;;;;;;3.67;3.38;;;;;;;21.71;76.34;98384.00;5024963;28;20049;-82
2022/07/21 03:13:26;;;;;;;3.60;3.25;;;;;;;21.69;76.88;98378.13;5024425;28;20096;-82
2022/07/21 03:15:53;;;;;;;3.38;3.08;;;;;;;21.74;75.77;98381.59;5021997;28;20084;-82
2022/07/21 03:18:20;;;;;;;3.72;3.30;;;;;;;21.66;75.23;98374.13;5022339;28;20386;-83
2022/07/21 03:20:47;;;;;;;3.63;3.33;;;;;;;21.67;76.25;98405.09;5023358;28;20123;-83
2022/07/21 03:23:14;;;;;;;5.22;3.97;;;;;;;21.54;77.19;98411.72;5025120;28;20068;-82
2022/07/21 03:25:40;;;;;;;4.50;4.10;;;;;;;21.46;77.45;98419.44;5024582;28;20124;-82
2022/07/21 03:28:07;;;;;;;4.45;4.05;;;;;;;21.36;77.65;98426.34;5023387;28;20620;-82
2022/07/21 03:30:35;;;;;;;4.50;4.10;;;;;;;21.19;77.90;98420.38;5021548;28;20129;-83
2022/07/21 03:33:03;;;;;;;4.82;4.32;;;;;;;21.04;77.73;98434.44;5018929;28;20041;-81
2022/07/21 03:35:30;;;;;;;3.53;3.28;;;;;;;21.26;77.68;98420.94;5019060;28;20477;-83
2022/07/21 03:37:59;;;;;;;4.18;3.72;;;;;;;21.41;76.56;98428.25;5021556;28;20111;-83
2022/07/21 03:40:32;;;;;;;3.45;3.15;;;;;;;21.52;75.97;98443.19;5018497;28;20050;-82
2022/07/21 03:43:01;;;;;;;4.22;3.70;;;;;;;21.45;77.01;98450.66;5021740;28;20041;-83
2022/07/21 03:45:30;;;;;;;5.70;4.78;;;;;;;21.32;76.79;98461.81;5020780;28;20049;-82
2022/07/21 03:48:00;;;;;;;5.10;4.60;;;;;;;21.25;77.69;98474.56;5019283;28;20079;-81
2022/07/21 03:50:29;;;;;;;5.55;4.80;;;;;;;21.21;78.08;98482.25;5020377;28;20053;-82
2022/07/21 03:52:55;;;;;;;7.28;6.57;;;;;;;21.01;77.36;98463.50;5019336;28;20128;-82
2022/07/21 03:55:23;;;;;;;7.20;5.82;;;;;;;20.91;77.66;98461.56;5023091;28;20046;-82
2022/07/21 03:57:53;;;;;;;7.60;6.72;;;;;;;20.79;78.21;98475.06;5021314;28;20264;-81
2022/07/21 04:00:30;;;;;;;6.00;4.43;;;;;;;21.00;79.23;98476.03;5021358;28;20042;-84
2022/07/21 04:02:59;;;;;;;5.15;4.65;;;;;;;21.02;77.66;98463.22;5022066;28;20044;-84
2022/07/21 04:05:27;;;;;;;3.78;3.30;;;;;;;21.28;78.17;98463.34;5026620;28;20168;-83
2022/07/21 04:07:55;;;;;;;4.25;3.85;;;;;;;21.42;78.17;98461.84;5025302;28;20475;-83
2022/07/21 04:10:26;;;;;;;3.63;3.33;;;;;;;21.53;78.38;98458.16;5025107;28;20455;-84
2022/07/21 04:12:55;;;;;;;3.92;3.20;;;;;;;21.67;78.04;98453.13;5027751;28;20080;-83
2022/07/21 04:15:23;;;;;;;4.25;3.78;;;;;;;21.66;77.42;98456.88;5025937;28;20045;-83
2022/07/21 04:17:51;;;;;;;5.32;4.40;;;;;;;21.57;75.84;98456.56;5023079;28;20042;-83
2022/07/21 04:20:18;;;;;;;5.22;4.72;;;;;;;21.56;76.32;98448.81;5027157;28;20092;-83
2022/07/21 04:22:47;;;;;;;4.82;4.43;;;;;;;21.48;75.92;98460.81;5025870;28;20091;-83
2022/07/21 04:25:16;;;;;;;6.03;5.43;;;;;;;21.40;76.24;98463.97;5029127;28;20045;-83
2022/07/21 04:27:44;;;;;;;5.78;5.28;;;;;;;21.35;76.53;98447.94;5026687;28;20117;-83
2022/07/21 04:30:15;;;;;;;6.85;6.25;;;;;;;21.24;76.54;98444.41;5024674;28;20049;-83
2022/07/21 04:32:43;;;;;;;5.72;5.13;;;;;;;21.31;76.64;98449.53;5025002;28;20042;-84
2022/07/21 04:35:11;;;;;;;5.70;5.20;;;;;;;21.36;76.73;98462.91;5027666;28;20041;-83
2022/07/21 04:37:37;;;;;;;5.72;5.13;;;;;;;21.35;77.54;98479.94;5024777;28;20037;-83
2022/07/21 04:40:08;;;;;;;6.35;5.75;;;;;;;21.26;76.83;98505.50;5025394;28;20072;-82
2022/07/21 04:42:35;;;;;;;8.75;7.95;;;;;;;21.06;76.65;98500.84;5023902;28;20041;-83
2022/07/21 04:45:05;;;;;;;10.25;7.38;;;;;;;20.96;77.75;98501.59;5021691;28;20069;-83
2022/07/21 04:47:31;;;;;;;8.48;7.68;;;;;;;20.94;78.11;98511.72;5026209;28;20041;-82
2022/07/21 04:49:58;;;;;;;8.57;7.63;;;;;;;20.83;79.00;98516.16;5023976;28;20041;-82
2022/07/21 04:52:25;;;;;;;9.50;8.57;;;;;;;20.71;80.88;98514.75;5021190;28;20049;-82
2022/07/21 04:54:51;;;;;;;8.38;7.55;;;;;;;20.68;80.26;98508.03;5022950;28;20099;-82
2022/07/21 04:57:18;;;;;;;8.40;7.57;;;;;;;20.70;81.07;98524.59;5023950;28;20069;-82
2022/07/21 04:59:45;;;;;;;6.38;5.82;;;;;;;20.69;81.63;98515.00;5024387;28;20557;-82
2022/07/21 05:02:12;;;;;;;6.55;5.65;;;;;;;20.83;80.84;98515.38;5025499;28;20672;-83
2022/07/21 05:04:38;;;;;;;6.65;6.03;;;;;;;20.92;80.58;98516.47;5026396;28;20064;-84
2022/07/21 05:07:05;;;;;;;6.53;5.13;;;;;;;21.04;80.04;98514.44;5022364;28;20056;-83
2022/07/21 05:09:32;;;;;;;6.60;5.97;;;;;;;21.05;79.80;98525.91;5023779;28;20057;-84
2022/07/21 05:11:59;;;;;;;7.50;6.78;;;;;;;20.91;80.77;98530.88;5027283;28;20041;-82
2022/07/21 05:14:25;;;;;;;6.47;5.88;;;;;;;20.90;80.64;98526.59;5024517;28;20046;-83
2022/07/21 05:16:52;;;;;;;7.80;7.00;;;;;;;20.94;80.66;98518.91;5025256;28;20040;-87
2022/07/21 05:19:19;;;;;;;6.88;6.28;;;;;;;20.96;80.86;98525.59;5017683;28;20084;-85
2022/07/21 05:21:46;;;;;;;7.72;6.57;;;;;;;20.99;81.49;98525.09;5015087;28;20049;-83
2022/07/21 05:24:14;;;;;;;6.25;5.65;;;;;;;21.22;81.26;98525.75;5017416;28;20042;-84
2022/07/21 05:26:41;;;;;;;5.75;5.25;;;;;;;21.33;80.97;98532.78;5023360;28;20620;-84
2022/07/21 05:29:08;;;;;;;5.95;5.35;;;;;;;21.46;80.94;98537.63;5022703;28;20038;-83
2022/07/21 05:31:34;;;;;;;6.45;5.80;;;;;;;21.63;81.06;98535.59;5019967;28;20045;-83
2022/07/21 05:34:01;;;;;;;6.88;6.20;;;;;;;21.64;79.78;98534.50;5021653;28;20590;-84
2022/07/21 05:36:28;;;;;;;6.63;5.93;;;;;;;21.68;80.00;98542.03;5021150;28;20073;-83
2022/07/21 05:38:55;;;;;;;7.55;6.85;;;;;;;21.55;78.70;98546.78;5022917;28;20081;-84
2022/07/21 05:41:22;;;;;;;8.02;7.22;;;;;;;21.34;79.52;98545.03;5021302;28;20092;-84
2022/07/21 05:43:49;;;;;;;8.02;7.10;;;;;;;21.29;79.67;98537.84;5022481;28;20111;-83
2022/07/21 05:46:16;;;;;;;10.32;9.32;;;;;;;21.16;79.73;98540.09;5021985;28;20049;-85
2022/07/21 05:48:43;;;;;;;9.05;7.75;;;;;;;21.06;80.63;98544.31;5025494;28;20037;-85
2022/07/21 05:51:09;;;;;;;8.68;7.88;;;;;;;20.91;80.73;98552.19;5024632;28;20042;-85
2022/07/21 05:53:44;;;;;;;10.18;9.00;;;;;;;20.95;80.84;98568.50;5024659;28;20057;-84
2022/07/21 05:56:11;;;;;;;8.75;7.85;;;;;;;21.11;81.33;98563.03;5021437;28;20095;-84
2022/07/21 05:58:38;;;;;;;8.98;7.43;;;;;;;21.33;79.88;98575.47;5022603;28;20041;-84
2022/07/21 06:01:15;;;;;;;8.25;7.55;;;;;;;21.37;79.69;98574.69;5021600;28;20073;-85
2022/07/21 06:03:48;;;;;;;8.30;7.60;;;;;;;21.48;80.27;98578.22;5023951;28;20496;-84
2022/07/21 06:06:18;;;;;;;7.57;6.90;;;;;;;21.57;80.18;98582.00;5022087;28;20038;-82
2022/07/21 06:08:48;;;;;;;6.50;5.90;;;;;;;21.75;79.74;98578.09;5022730;28;20033;-84
2022/07/21 06:11:19;;;;;;;7.53;6.82;;;;;;;21.67;78.19;98580.47;5019869;28;20052;-84
2022/07/21 06:13:46;;;;;;;11.07;9.88;;;;;;;21.56;78.30;98588.41;5018756;28;20397;-85
2022/07/21 06:16:13;;;;;;;8.70;7.90;;;;;;;21.51;78.73;98572.34;5021891;28;20049;-83
2022/07/21 06:18:40;;;;;;;9.15;8.32;;;;;;;21.53;77.83;98583.59;5019165;28;20037;-84
2022/07/21 06:21:08;;;;;;;12.70;11.30;;;;;;;21.46;77.26;98576.88;5021902;28;20041;-84
2022/07/21 06:23:34;;;;;;;9.07;8.20;;;;;;;21.66;78.32;98570.84;5020038;28;20042;-83
2022/07/21 06:26:01;;;;;;;9.73;8.82;;;;;;;21.68;78.16;98577.53;5015186;28;20162;-83
2022/07/21 06:28:28;;;;;;;8.63;7.72;;;;;;;21.70;79.31;98563.91;5020263;28;20386;-82
2022/07/21 06:30:55;;;;;;;7.25;6.60;;;;;;;21.98;79.13;98571.50;5021067;28;20042;-82
2022/07/21 06:33:22;;;;;;;7.63;6.80;;;;;;;22.28;79.51;98575.38;5020803;28;20061;-82
2022/07/21 06:35:49;;;;;;;7.15;6.45;;;;;;;22.36;77.57;98569.50;5023133;28;20535;-82
2022/07/21 06:38:16;;;;;;;7.85;7.03;;;;;;;22.46;75.88;98572.19;5020350;28;20051;-83
2022/07/21 06:40:43;;;;;;;8.70;7.90;;;;;;;22.28;76.46;98564.69;5020647;28;20056;-82
2022/07/21 06:43:12;;;;;;;8.25;7.13;;;;;;;22.39;76.46;98567.09;5021887;28;20389;-83
2022/07/21 06:45:54;;;;;;;7.55;6.70;;;;;;;22.40;75.65;98562.56;5020341;28;20064;-83
2022/07/21 06:48:21;;;;;;;11.27;10.23;;;;;;;22.37;73.10;98579.94;5021000;28;20139;-83
2022/07/21 06:50:49;;;;;;;7.88;7.18;;;;;;;22.43;76.32;98578.88;5017808;28;20042;-83
2022/07/21 06:53:17;;;;;;;7.35;6.65;;;;;;;22.52;75.89;98564.97;5021173;28;20053;-82
2022/07/21 06:55:44;;;;;;;7.28;6.68;;;;;;;22.58;75.97;98574.63;5020817;28;20034;-82
2022/07/21 06:58:18;;;;;;;8.07;7.30;;;;;;;22.56;74.24;98576.75;5022616;28;20115;-82
2022/07/21 07:00:47;;;;;;;6.85;6.25;;;;;;;22.49;75.73;98585.03;5023809;28;20524;-82
2022/07/21 07:03:16;;;;;;;8.90;8.10;;;;;;;22.41;75.05;98575.66;5020659;28;20482;-84
2022/07/21 07:05:48;;;;;;;8.55;7.85;;;;;;;22.35;74.57;98586.59;5020513;28;20061;-82
2022/07/21 07:08:16;;;;;;;9.38;8.52;;;;;;;22.34;75.18;98587.66;5021212;28;20413;-82
2022/07/21 07:10:45;;;;;;;11.95;10.43;;;;;;;22.33;74.29;98583.41;5020817;28;20050;-82
2022/07/21 07:13:15;;;;;;;9.90;8.90;;;;;;;22.33;74.32;98586.06;5020141;28;20457;-83
2022/07/21 07:16:01;;;;;;;8.90;8.05;;;;;;;22.41;74.87;98585.53;5036787;28;20284;-82
2022/07/21 07:18:29;;;;;;;10.80;9.70;;;;;;;22.27;73.23;98577.22;5015315;28;20492;-83
2022/07/21 07:20:56;;;;;;;7.97;7.28;;;;;;;22.41;74.41;98582.88;5021524;28;20539;-82
2022/07/21 07:23:23;;;;;;;11.65;10.55;;;;;;;22.33;73.08;98583.41;5018849;28;20041;-82
2022/07/21 07:25:50;;;;;;;9.65;8.65;;;;;;;22.36;73.53;98590.88;5014889;28;20124;-83
2022/07/21 07:28:17;;;;;;;11.60;10.52;;;;;;;22.26;74.10;98601.56;5019535;28;20477;-81
2022/07/21 07:30:43;;;;;;;8.80;8.00;;;;;;;22.37;75.78;98589.78;5020586;28;20042;-82
2022/07/21 07:33:10;;;;;;;9.50;8.60;;;;;;;22.27;74.35;98601.28;5020631;28;20441;-82
2022/07/21 07:35:37;;;;;;;8.75;7.85;;;;;;;22.42;74.73;98603.16;5015751;28;20573;-81
2022/07/21 07:38:04;;;;;;;11.23;10.23;;;;;;;22.32;72.96;98605.84;5022264;28;20042;-82
2022/07/21 07:40:31;;;;;;;10.38;9.43;;;;;;;22.27;73.46;98611.16;5024396;28;20060;-82
2022/07/21 07:42:58;;;;;;;10.95;9.75;;;;;;;22.22;74.02;98600.47;5020414;28;20357;-82
2022/07/21 07:45:37;;;;;;;10.48;9.25;;;;;;;22.34;74.22;98596.47;5023521;28;20046;-83
2022/07/21 07:48:05;;;;;;;10.80;9.80;;;;;;;22.32;73.94;98603.97;5021221;28;20046;-81
2022/07/21 07:50:32;;;;;;;11.40;10.43;;;;;;;22.39;72.34;98590.34;5021538;28;20030;-81
2022/07/21 07:52:58;;;;;;;10.55;9.65;;;;;;;22.71;72.44;98593.59;5025074;28;20103;-82
2022/07/21 07:55:25;;;;;;;9.45;8.65;;;;;;;22.75;71.20;98590.41;5020887;28;20074;-83
2022/07/21 07:57:52;;;;;;;9.00;8.20;;;;;;;22.98;70.32;98595.25;5024537;28;20041;-83
2022/07/21 08:00:21;;;;;;;8.50;7.70;;;;;;;23.20;69.28;98593.09;5024413;28;20045;-82
2022/07/21 08:03:07;;;;;;;8.25;7.55;;;;;;;23.35;70.00;98588.78;5022814;28;20502;-85
2022/07/21 08:05:34;;;;;;;8.13;7.43;;;;;;;23.41;68.62;98582.34;5024261;28;20045;-83
2022/07/21 08:08:01;;;;;;;8.55;7.85;;;;;;;23.50;69.72;98591.41;5023306;28;20041;-84
2022/07/21 08:10:28;;;;;;;11.15;10.15;;;;;;;23.34;68.22;98593.34;5021785;28;20041;-83
2022/07/21 08:13:08;;;;;;;11.07;10.07;;;;;;;23.23;66.67;98591.75;5024391;28;20128;-82
2022/07/21 08:15:37;;;;;;;8.98;8.18;;;;;;;23.36;66.84;98590.41;5027012;28;20069;-83
2022/07/21 08:18:04;;;;;;;9.02;8.20;;;;;;;23.55;66.14;98582.59;5023738;28;20116;-85
2022/07/21 08:20:32;;;;;;;8.55;7.75;;;;;;;23.63;67.02;98590.06;5024665;28;20045;-85
2022/07/21 08:22:59;;;;;;;7.80;7.10;;;;;;;23.73;66.62;98580.16;5022316;28;20045;-83
2022/07/21 08:25:26;;;;;;;9.57;8.77;;;;;;;23.72;67.59;98596.50;5024122;28;20092;-80
2022/07/21 08:27:53;;;;;;;9.18;8.35;;;;;;;23.55;64.57;98595.97;5018971;28;20542;-81
2022/07/21 08:30:21;;;;;;;8.57;7.88;;;;;;;23.39;66.00;98598.69;5025071;28;20100;-81
2022/07/21 08:32:54;;;;;;;9.32;8.52;;;;;;;23.37;65.37;98594.66;5022018;28;20047;-82
2022/07/21 08:35:21;;;;;;;7.50;6.90;;;;;;;23.62;65.28;98600.00;5025010;28;20072;-82
2022/07/21 08:38:04;;;;;;;6.90;6.30;;;;;;;23.86;65.13;98591.34;5022462;28;20042;-82
2022/07/21 08:40:36;;;;;;;8.15;7.43;;;;;;;23.97;66.63;98592.91;5023136;28;20042;-84
2022/07/21 08:43:04;;;;;;;7.00;6.32;;;;;;;24.37;67.03;98599.19;5024348;28;20095;-82
2022/07/21 08:45:31;;;;;;;7.45;6.85;;;;;;;24.40;63.42;98587.88;5021248;28;20056;-81
2022/07/21 08:47:59;;;;;;;7.50;6.80;;;;;;;24.36;62.83;98597.59;5022320;28;20041;-83
2022/07/21 08:50:31;;;;;;;8.80;8.10;;;;;;;24.19;61.00;98592.56;5020272;28;20096;-80
2022/07/21 08:52:58;;;;;;;6.70;6.10;;;;;;;24.54;60.58;98600.41;5021040;28;20074;-82
2022/07/21 08:55:36;;;;;;;7.75;7.15;;;;;;;24.63;61.57;98600.63;5023555;28;20312;-82
2022/07/21 08:58:03;;;;;;;6.60;6.07;;;;;;;24.65;60.10;98603.84;5025076;28;20042;-83
2022/07/21 09:00:34;;;;;;;6.28;5.78;;;;;;;24.93;59.63;98601.47;5022899;28;20461;-82
2022/07/21 09:03:14;;;;;;;7.57;6.97;;;;;;;24.81;59.64;98613.34;5022721;28;20124;-81
2022/07/21 09:05:57;;;;;;;8.40;7.70;;;;;;;24.61;58.89;98604.66;5020671;28;20041;-81
2022/07/21 09:08:41;;;;;;;8.32;7.43;;;;;;;24.36;58.51;98603.75;5022484;28;20049;-82
2022/07/21 09:11:23;;;;;;;6.47;5.97;;;;;;;24.33;58.78;98609.63;5023313;28;20068;-82
2022/07/21 09:14:13;;;;;;;8.13;7.43;;;;;;;24.22;58.77;98606.19;5025924;28;20044;-82
2022/07/21 09:16:46;;;;;;;5.82;5.32;;;;;;;24.16;59.50;98611.84;5024001;28;20107;-82
2022/07/21 09:19:44;;;;;;;6.03;5.53;;;;;;;24.44;57.77;98605.03;5019987;28;20096;-82
2022/07/21 09:22:18;;;;;;;6.43;5.82;;;;;;;24.54;58.97;98607.66;5021217;28;20540;-82
2022/07/21 09:24:51;;;;;;;7.25;6.65;;;;;;;24.74;58.43;98610.19;5020663;28;20540;-81
2022/07/21 09:27:25;;;;;;;6.75;6.25;;;;;;;25.00;56.79;98607.31;5015968;28;20094;-83
2022/07/21 09:30:00;;;;;;;7.28;6.57;;;;;;;25.18;53.15;98601.28;5020369;28;20038;-81
2022/07/21 09:32:31;;;;;;;6.25;5.75;;;;;;;25.52;54.50;98603.91;5022036;28;20069;-81
2022/07/21 09:35:05;;;;;;;5.15;4.75;;;;;;;25.96;57.82;98604.78;5020106;28;20268;-81
2022/07/21 09:37:36;;;;;;;6.45;5.28;;;;;;;25.90;53.59;98585.22;5020926;28;20060;-82
2022/07/21 09:40:10;;;;;;;7.45;6.75;;;;;;;25.82;52.20;98600.09;5024203;28;20052;-81
2022/07/21 09:42:47;;;;;;;5.88;5.35;;;;;;;25.83;52.55;98598.22;5020985;28;20422;-81
2022/07/21 09:45:16;;;;;;;7.18;6.50;;;;;;;25.79;53.32;98599.88;5021283;28;20041;-82
2022/07/21 09:47:45;;;;;;;7.78;7.07;;;;;;;25.52;54.19;98605.78;5022667;28;20077;-82
2022/07/21 09:50:14;;;;;;;7.07;6.32;;;;;;;25.40;53.50;98600.00;5022113;28;20044;-81
2022/07/21 09:52:55;;;;;;;6.72;6.22;;;;;;;25.50;52.26;98606.09;5024284;28;20512;-81
2022/07/21 09:55:22;;;;;;;5.35;4.82;;;;;;;25.71;52.60;98593.22;5023882;28;20045;-81
2022/07/21 09:57:49;;;;;;;5.78;5.20;;;;;;;25.89;52.38;98581.75;5017535;28;20067;-82
2022/07/21 10:00:19;;;;;;;6.32;5.82;;;;;;;25.98;50.62;98583.81;5018856;28;20669;-81
2022/07/21 10:02:47;;;;;;;6.47;5.95;;;;;;;26.21;50.75;98593.72;5020662;28;20042;-82
2022/07/21 10:05:21;;;;;;;6.60;6.10;;;;;;;26.38;50.85;98587.81;5023264;28;20121;-83
2022/07/21 10:08:00;;;;;;;5.57;5.18;;;;;;;26.69;49.76;98585.53;5024328;28;20045;-81
2022/07/21 10:10:27;;;;;;;6.28;5.78;;;;;;;26.66;50.19;98588.78;5020924;28;20109;-86
2022/07/21 10:13:14;;;;;;;6.20;5.60;;;;;;;26.71;49.22;98588.72;5023369;28;20140;-85
2022/07/21 10:15:46;;;;;;;6.57;5.90;;;;;;;26.52;48.93;98579.88;5022312;28;20088;-82
2022/07/21 10:18:17;;;;;;;5.15;4.75;;;;;;;26.19;50.19;98570.88;5021913;28;20049;-81
2022/07/21 10:20:55;;;;;;;5.70;5.20;;;;;;;25.76;50.28;98577.06;5019286;28;20037;-82
2022/07/21 10:23:36;;;;;;;6.20;5.60;;;;;;;25.41;52.08;98570.19;5019456;28;20162;-81
2022/07/21 10:26:05;;;;;;;5.20;4.70;;;;;;;26.03;50.75;98581.84;5020449;28;20049;-81
2022/07/21 10:28:33;;;;;;;6.50;5.93;;;;;;;26.12;50.21;98576.63;5017584;28;20041;-81
2022/07/21 10:31:19;;;;;;;4.97;4.55;;;;;;;26.54;48.07;98575.00;5014009;28;20069;-81
2022/07/21 10:33:49;;;;;;;7.00;6.40;;;;;;;26.19;48.02;98574.38;5022662;28;20042;-81
2022/07/21 10:36:28;;;;;;;5.05;4.65;;;;;;;26.26;47.96;98572.13;5021455;28;20103;-80
2022/07/21 10:39:08;;;;;;;5.55;5.05;;;;;;;26.35;48.28;98575.78;5021591;28;20041;-82
2022/07/21 10:41:50;;;;;;;4.40;4.00;;;;;;;26.64;47.53;98574.84;5024185;28;20096;-81
2022/07/21 10:44:30;;;;;;;4.78;4.38;;;;;;;26.77;45.54;98582.16;5021010;28;20049;-81
2022/07/21 10:47:04;;;;;;;4.60;4.20;;;;;;;26.60;45.52;98580.00;5021011;28;20112;-81
2022/07/21 10:49:50;;;;;;;5.15;4.65;;;;;;;26.55;46.94;98579.28;5022206;28;20042;-82
2022/07/21 10:52:35;;;;;;;4.63;4.22;;;;;;;26.75;46.34;98570.91;5016552;28;20054;-81
2022/07/21 10:55:23;;;;;;;5.57;4.93;;;;;;;26.55;45.70;98576.59;5020930;28;20096;-82
2022/07/21 10:58:28;;;;;;;4.93;4.53;;;;;;;26.45;47.36;98582.09;5019774;28;20038;-82
2022/07/21 11:01:06;;;;;;;4.53;4.10;;;;;;;26.66;46.73;98583.41;5004953;28;20073;-82
2022/07/21 11:03:41;;;;;;;5.93;5.53;;;;;;;26.25;45.93;98575.91;5021445;28;20289;-84
2022/07/21 11:06:19;;;;;;;5.05;4.65;;;;;;;25.99;46.28;98577.34;5022689;28;20041;-83
2022/07/21 11:09:03;;;;;;;4.72;4.30;;;;;;;26.19;46.95;98582.44;5020170;28;20501;-83
2022/07/21 11:11:56;;;;;;;3.83;3.50;;;;;;;26.14;46.83;98572.53;5020062;28;20338;-83
2022/07/21 11:14:39;;;;;;;3.90;3.60;;;;;;;26.43;47.48;98563.56;5021307;28;20489;-83
2022/07/21 11:17:10;;;;;;;4.45;4.05;;;;;;;26.67;46.59;98555.41;5008611;28;20387;-83
2022/07/21 11:19:52;;;;;;;4.10;3.70;;;;;;;27.17;45.85;98561.06;5022215;28;20548;-83
2022/07/21 11:22:24;;;;;;;4.63;4.22;;;;;;;27.55;45.99;98544.75;5021282;28;20083;-84
2022/07/21 11:24:56;;;;;;;4.50;4.10;;;;;;;27.67;44.35;98553.91;5020446;28;20543;-85
2022/07/21 11:27:31;;;;;;;4.80;4.40;;;;;;;27.52;43.99;98556.09;5021160;28;20545;-82
2022/07/21 11:30:02;;;;;;;4.53;4.03;;;;;;;27.32;41.80;98554.59;5015672;28;20045;-83
2022/07/21 11:32:29;;;;;;;4.10;3.75;;;;;;;27.20;42.02;98555.09;5021236;28;20541;-82
2022/07/21 11:35:03;;;;;;;4.13;3.83;;;;;;;26.77;42.67;98549.88;5020289;28;20041;-83
2022/07/21 11:37:40;;;;;;;4.93;3.70;;;;;;;26.49;42.18;98540.09;4999864;28;20050;-81
2022/07/21 11:40:12;;;;;;;4.15;3.80;;;;;;;26.65;43.28;98530.69;5021080;28;20038;-82
2022/07/21 11:42:42;;;;;;;3.65;3.35;;;;;;;27.06;43.97;98536.22;5019035;28;20049;-82
2022/07/21 11:45:10;;;;;;;4.00;3.70;;;;;;;27.29;42.86;98534.47;5020780;28;20107;-82
2022/07/21 11:47:37;;;;;;;4.63;4.22;;;;;;;27.19;42.07;98543.50;5022242;28;20056;-81